Aviation Digital Data Service (ADDS)

Output produced by METARs form (0344 UTC 26 April 2019)
found at http://www.aviationweather.gov/metar/data/
 
Forecast for: ZYTL (DALIAN/DAIREN/LU, CN)
Text: TAF ZYTL 251902Z 2600/2624 33004G10MPS CAVOK TX18/2606Z TN08/2620Z
Forecast period: 0000 UTC 26 April 2019 to 0000 UTC 27 April 2019
Forecast type: FROM: standard forecast or significant change
Winds: from the NNW (330 degrees) at 9 MPH (8 knots; 4.1 m/s)
gusting to 22 MPH (19 knots; 9.8 m/s)
Visibility: 6 or more miles 10+ km)
Ceiling: unknown
Clouds: missing
Weather: no significant weather forecast for this period